createdAt,value
2022-10-03T00:03:54.277Z,96.07
2022-10-03T00:09:12.862Z,96.58
2022-10-03T00:14:22.239Z,96.57
2022-10-03T00:19:37.274Z,96.74
2022-10-03T00:24:52.812Z,96.67
2022-10-03T00:30:11.635Z,96.79
2022-10-03T00:35:24.399Z,96.72
2022-10-03T00:40:43.677Z,95.86
2022-10-03T00:46:04.582Z,95.38
2022-10-03T00:51:25.284Z,95.14
2022-10-03T00:56:47.473Z,94.35
2022-10-03T01:01:51.495Z,93.93
2022-10-03T01:07:04.486Z,93.46
2022-10-03T01:12:19.645Z,92.99
2022-10-03T01:17:31.431Z,92.61
2022-10-03T01:23:05.549Z,92.40
2022-10-03T01:28:42.361Z,91.72
2022-10-03T01:33:52.233Z,91.15
2022-10-03T01:38:58.366Z,91.15
2022-10-03T01:44:11.255Z,90.67
2022-10-03T01:49:25.150Z,90.82
2022-10-03T01:54:35.189Z,90.28
2022-10-03T01:59:47.247Z,90.00
2022-10-03T02:04:57.952Z,90.36
2022-10-03T02:10:12.645Z,90.62
2022-10-03T02:15:24.418Z,91.87
2022-10-03T02:20:35.634Z,91.74
2022-10-03T02:25:54.130Z,91.26
2022-10-03T02:31:31.984Z,91.27
2022-10-03T02:36:59.672Z,91.17
2022-10-03T02:42:37.638Z,90.63
2022-10-03T02:48:31.135Z,90.44
2022-10-03T02:54:25.140Z,90.40
2022-10-03T03:00:06.688Z,90.42
2022-10-03T03:05:34.484Z,90.75
2022-10-03T03:11:06.306Z,91.33
2022-10-03T03:16:40.984Z,91.58
2022-10-03T03:21:53.433Z,91.39
2022-10-03T03:27:22.611Z,91.50
2022-10-03T03:32:37.692Z,91.69
2022-10-03T03:37:51.858Z,91.55
2022-10-03T03:43:17.146Z,91.40
2022-10-03T03:48:48.183Z,91.24
2022-10-03T03:54:28.077Z,91.34
2022-10-03T03:59:46.362Z,91.34
2022-10-03T04:05:02.606Z,91.79
2022-10-03T04:10:17.663Z,91.70
2022-10-03T04:15:35.265Z,91.60
2022-10-03T04:21:01.274Z,91.45
2022-10-03T04:26:18.580Z,91.43
2022-10-03T04:31:44.224Z,91.06
2022-10-03T04:37:17.880Z,91.71
2022-10-03T04:42:29.717Z,91.63
2022-10-03T04:47:42.036Z,92.07
2022-10-03T04:52:52.133Z,92.61
2022-10-03T04:58:04.921Z,93.86
2022-10-03T05:03:15.343Z,94.06
2022-10-03T05:08:34.840Z,94.32
2022-10-03T05:13:49.127Z,93.71
2022-10-03T05:18:59.742Z,93.60
2022-10-03T05:24:15.204Z,93.09
2022-10-03T05:29:27.160Z,92.66
2022-10-03T05:34:42.729Z,92.23
2022-10-03T05:39:55.396Z,91.73
2022-10-03T05:45:04.324Z,90.80
2022-10-03T05:50:26.013Z,90.28
2022-10-03T05:55:37.204Z,89.90
2022-10-03T06:00:56.701Z,89.57
2022-10-03T06:06:11.831Z,89.63
2022-10-03T06:11:21.559Z,89.33
2022-10-03T06:16:33.361Z,89.14
2022-10-03T06:22:14.650Z,88.50
2022-10-03T06:27:51.428Z,87.75
2022-10-03T06:33:40.695Z,86.90
2022-10-03T06:39:22.317Z,86.47
2022-10-03T06:44:47.985Z,86.42
2022-10-03T06:50:14.873Z,85.99
2022-10-03T06:55:46.258Z,85.54
2022-10-03T07:01:01.087Z,84.30
2022-10-03T07:06:44.032Z,82.90
2022-10-03T07:12:14.390Z,83.61
2022-10-03T07:17:40.250Z,83.78
2022-10-03T07:23:09.180Z,83.28
2022-10-03T07:28:47.998Z,82.51
2022-10-03T07:34:21.822Z,81.78
2022-10-03T07:40:01.384Z,80.34
2022-10-03T07:45:36.771Z,79.91
2022-10-03T07:50:58.027Z,79.91
2022-10-03T07:56:11.710Z,80.42
2022-10-03T08:01:34.111Z,79.77
2022-10-03T08:06:40.769Z,78.70
2022-10-03T08:12:16.588Z,78.90
2022-10-03T08:18:18.295Z,79.24
2022-10-03T08:24:00.427Z,78.07
2022-10-03T08:29:19.653Z,77.60
2022-10-03T08:34:42.841Z,76.97
2022-10-03T08:40:24.629Z,76.70
2022-10-03T08:45:57.925Z,75.69
2022-10-03T08:51:39.289Z,73.94
2022-10-03T08:56:55.552Z,74.83
2022-10-03T09:02:33.575Z,75.33
2022-10-03T09:08:05.440Z,75.38
2022-10-03T09:13:31.278Z,74.21
2022-10-03T09:18:51.975Z,72.03
2022-10-03T09:24:16.639Z,69.94
2022-10-03T09:29:50.194Z,69.63
2022-10-03T09:35:23.426Z,68.60
2022-10-03T09:41:07.588Z,67.81
2022-10-03T09:46:42.910Z,69.46
2022-10-03T09:51:57.288Z,64.25
2022-10-03T09:57:23.065Z,68.25
2022-10-03T10:03:05.954Z,66.89
2022-10-03T10:08:33.196Z,66.98
2022-10-03T10:14:14.043Z,63.86
2022-10-03T10:19:33.508Z,60.00
2022-10-03T10:25:08.422Z,56.85
2022-10-03T10:30:21.914Z,58.24
2022-10-03T10:35:59.046Z,53.61
2022-10-03T10:41:34.621Z,62.05
2022-10-03T10:47:04.354Z,66.45
2022-10-03T10:52:45.639Z,66.48
2022-10-03T10:58:32.377Z,64.43
2022-10-03T11:04:13.432Z,68.43
2022-10-03T11:10:06.936Z,71.96
2022-10-03T11:16:08.393Z,67.19
2022-10-03T11:21:55.999Z,67.24
2022-10-03T11:27:30.306Z,71.37
2022-10-03T11:33:08.344Z,72.36
2022-10-03T11:38:19.220Z,72.89
2022-10-03T11:44:01.921Z,74.76
2022-10-03T11:49:19.552Z,74.83
2022-10-03T11:54:32.870Z,73.64
2022-10-03T11:59:58.712Z,73.26
2022-10-03T12:05:08.043Z,72.93
2022-10-03T12:10:25.683Z,76.79
2022-10-03T12:15:34.904Z,78.41
2022-10-03T12:20:55.146Z,78.32
2022-10-03T12:26:01.140Z,78.45
2022-10-03T12:31:10.352Z,77.78
2022-10-03T12:36:15.739Z,76.29
2022-10-03T12:41:33.092Z,71.98
2022-10-03T12:46:45.597Z,69.85
2022-10-03T12:51:56.158Z,68.41
2022-10-03T12:57:18.001Z,67.70
2022-10-03T13:02:25.477Z,65.94
2022-10-03T13:07:40.958Z,64.80
2022-10-03T13:12:49.326Z,65.47
2022-10-03T13:18:00.934Z,68.08
2022-10-03T13:23:06.447Z,66.48
2022-10-03T13:28:14.578Z,67.28
2022-10-03T13:33:21.071Z,66.79
2022-10-03T13:38:45.221Z,66.33
2022-10-03T13:43:51.943Z,67.83
2022-10-03T13:49:02.238Z,66.13
2022-10-03T13:54:08.561Z,64.49
2022-10-03T13:59:29.384Z,63.89
2022-10-03T14:04:51.791Z,63.91
2022-10-03T14:10:08.700Z,64.08
2022-10-03T14:15:42.627Z,65.10
2022-10-03T14:21:26.075Z,63.13
2022-10-03T14:26:33.736Z,62.12
2022-10-03T14:31:47.113Z,62.10
2022-10-03T14:36:54.166Z,62.68
2022-10-03T14:42:17.557Z,62.70
2022-10-03T14:47:21.247Z,63.45
2022-10-03T14:52:29.465Z,63.77
2022-10-03T14:57:47.648Z,64.18
2022-10-03T15:03:19.217Z,64.79
2022-10-03T15:08:22.292Z,65.29
2022-10-03T15:13:27.139Z,65.47
2022-10-03T15:18:31.854Z,65.87
2022-10-03T15:23:39.365Z,65.86
2022-10-03T15:28:45.393Z,66.38
2022-10-03T15:33:52.575Z,66.99
2022-10-03T15:38:58.639Z,68.07
2022-10-03T15:44:03.971Z,69.43
2022-10-03T15:49:18.088Z,70.50
2022-10-03T15:54:22.993Z,72.66
2022-10-03T15:59:29.082Z,73.19
2022-10-03T16:04:34.125Z,73.84
2022-10-03T16:09:49.323Z,74.29
2022-10-03T16:14:58.854Z,75.26
2022-10-03T16:20:09.761Z,76.55
2022-10-03T16:25:17.741Z,76.89
2022-10-03T16:30:22.502Z,77.96
2022-10-03T16:35:33.577Z,78.20
2022-10-03T16:40:36.325Z,78.53
2022-10-03T16:45:44.006Z,79.26
2022-10-03T16:50:51.323Z,78.63
2022-10-03T16:56:00.232Z,79.20
2022-10-03T17:06:32.276Z,81.36
2022-10-03T17:11:38.459Z,81.23
2022-10-03T17:16:48.043Z,83.30
2022-10-03T17:21:54.261Z,83.90
2022-10-03T17:26:59.854Z,85.02
2022-10-03T17:32:09.950Z,84.75
2022-10-03T17:37:29.884Z,85.81
2022-10-03T17:42:39.982Z,85.99
2022-10-03T17:47:52.091Z,86.26
2022-10-03T17:52:55.805Z,87.45
2022-10-03T17:58:03.088Z,89.48
2022-10-03T18:03:10.428Z,90.44
2022-10-03T18:08:18.302Z,91.31
2022-10-03T18:13:25.442Z,91.78
2022-10-03T18:19:04.223Z,91.47
2022-10-03T18:24:26.639Z,90.63
2022-10-03T18:29:34.274Z,90.45
2022-10-03T18:34:43.023Z,89.98
2022-10-03T18:39:50.113Z,89.76
2022-10-03T18:44:55.549Z,90.34
2022-10-03T18:50:07.072Z,90.30
2022-10-03T18:55:20.403Z,90.71
2022-10-03T19:00:27.807Z,90.82
2022-10-03T19:05:33.124Z,91.24
2022-10-03T19:10:39.948Z,90.67
2022-10-03T19:15:58.809Z,89.48
2022-10-03T19:21:05.870Z,89.75
2022-10-03T19:26:12.245Z,89.66
2022-10-03T19:31:20.217Z,89.92
2022-10-03T19:36:25.665Z,89.98
2022-10-03T19:41:32.269Z,90.62
2022-10-03T19:46:47.977Z,90.59
2022-10-03T19:51:49.849Z,91.00
2022-10-03T19:56:57.789Z,90.42
2022-10-03T20:02:06.019Z,90.67
2022-10-03T20:07:16.213Z,91.32
2022-10-03T20:12:19.983Z,91.89
2022-10-03T20:17:24.014Z,92.25
2022-10-03T20:22:29.008Z,92.13
2022-10-03T20:27:40.027Z,91.88
2022-10-03T20:32:45.554Z,92.50
2022-10-03T20:37:53.142Z,91.95
2022-10-03T20:43:11.145Z,91.70
2022-10-03T20:48:20.765Z,91.66
2022-10-03T20:53:24.955Z,90.39
2022-10-03T20:58:33.203Z,90.31
2022-10-03T21:03:40.829Z,90.44
2022-10-03T21:08:43.322Z,90.68
2022-10-03T21:13:50.965Z,90.94
2022-10-03T21:18:57.497Z,91.37
2022-10-03T21:24:05.973Z,91.81
2022-10-03T21:29:27.735Z,91.80
2022-10-03T21:34:36.227Z,91.67
2022-10-03T21:39:48.123Z,92.06
2022-10-03T21:45:04.946Z,91.68
2022-10-03T21:50:12.726Z,90.92
2022-10-03T21:55:50.740Z,90.40
2022-10-03T22:01:06.347Z,90.82
2022-10-03T22:06:18.243Z,91.17
2022-10-03T22:11:34.332Z,90.47
2022-10-03T22:16:42.792Z,90.90
2022-10-03T22:22:01.024Z,90.76
2022-10-03T22:27:12.469Z,90.87
2022-10-03T22:32:25.302Z,90.46
2022-10-03T22:37:28.230Z,90.32
2022-10-03T22:42:38.855Z,90.79
2022-10-03T22:47:45.638Z,90.47
2022-10-03T22:52:51.194Z,90.31
2022-10-03T22:57:55.208Z,89.86
2022-10-03T23:03:06.075Z,89.81
2022-10-03T23:08:19.355Z,90.03
2022-10-03T23:13:34.769Z,90.09
2022-10-03T23:18:54.095Z,89.51
2022-10-03T23:24:04.565Z,89.77
2022-10-03T23:29:11.051Z,89.66
2022-10-03T23:34:44.072Z,89.76
2022-10-03T23:40:35.127Z,89.43
2022-10-03T23:45:37.461Z,89.65
2022-10-03T23:50:44.778Z,89.65
2022-10-03T23:55:47.792Z,89.66
